Ana Sayfa
METAR-TAF:

METAR-TAF

Havaalanları :

Pocono Mountains Municipal Airport

Mount Pocono, Pensilvanya, Amerika Birleşik Devletleri

Enlem: 41-08-20N, Boylam: 075-23-46W, yükseklik: 584 m

Güncel hava durumu gözlemi

Rapor saat 03:53 UTC de 55 dakika önce yapıldı.
Rüzgar kuzeybatıdan 11 kt
Sıcaklık -10°C
Nem 79%
Basınç 1027 hPa
Görüş mesafesi: 16.1 km
Açık gökyüzü

METAR: KMPO 220353Z AUTO 31011KT 10SM CLR M10/M13 A3032 RMK AO2 SLP304 T11001133

Saat: 23:48 (04:48 UTC)


TAF: eksik

4.000'den fazla havaalanı için hava durumu gözlemleri ve tahminleri (METAR ve TAF raporları).

Kullanılabilir istasyonlar harita üzerinde sarı ve kırmızı noktalarla gösterilir.

İstasyonun adını görmek için fareyi noktanın üzerinde gezdirin.

Sonrasında hava gözlem ve tahminlerini görmek için tıklayın.

Haritayı değiştirmek için: yaklaştırmak için siyah artı işaretli yeşil düğmeye ve uzaklaştırmak için de eksi işaretli düğmeye hızla tıklayın; bitişik haritalar için yeşil okları kullanın.


METAR-TAF: